sensor_id;sensor_type;location;lat;lon;timestamp;temperature;humidity
37412;DHT22;23278;52.110;6.050;2023-04-07T00:00:56;9.80;99.90
37412;DHT22;23278;52.110;6.050;2023-04-07T00:03:22;9.80;99.90
37412;DHT22;23278;52.110;6.050;2023-04-07T00:05:48;9.80;99.90
37412;DHT22;23278;52.110;6.050;2023-04-07T00:08:14;9.80;99.90
37412;DHT22;23278;52.110;6.050;2023-04-07T00:10:40;9.80;99.90
37412;DHT22;23278;52.110;6.050;2023-04-07T00:13:06;9.90;99.90
37412;DHT22;23278;52.110;6.050;2023-04-07T00:15:32;9.90;99.90
37412;DHT22;23278;52.110;6.050;2023-04-07T00:17:58;9.90;99.90
37412;DHT22;23278;52.110;6.050;2023-04-07T00:20:24;9.90;99.90
37412;DHT22;23278;52.110;6.050;2023-04-07T00:22:50;9.90;99.90
37412;DHT22;23278;52.110;6.050;2023-04-07T00:25:16;9.90;99.90
37412;DHT22;23278;52.110;6.050;2023-04-07T00:27:42;10.00;99.90
37412;DHT22;23278;52.110;6.050;2023-04-07T00:30:08;10.00;99.90
37412;DHT22;23278;52.110;6.050;2023-04-07T00:32:34;9.90;99.90
37412;DHT22;23278;52.110;6.050;2023-04-07T00:35:00;9.90;99.90
37412;DHT22;23278;52.110;6.050;2023-04-07T00:37:26;9.90;99.90
37412;DHT22;23278;52.110;6.050;2023-04-07T00:39:52;9.90;99.90
37412;DHT22;23278;52.110;6.050;2023-04-07T00:42:18;9.90;99.90
37412;DHT22;23278;52.110;6.050;2023-04-07T00:44:44;9.90;99.90
37412;DHT22;23278;52.110;6.050;2023-04-07T00:47:11;9.90;99.90
37412;DHT22;23278;52.110;6.050;2023-04-07T00:49:37;9.90;99.90
37412;DHT22;23278;52.110;6.050;2023-04-07T00:52:03;9.90;99.90
37412;DHT22;23278;52.110;6.050;2023-04-07T00:54:30;9.90;99.90
37412;DHT22;23278;52.110;6.050;2023-04-07T00:56:56;9.90;99.90
37412;DHT22;23278;52.110;6.050;2023-04-07T00:59:23;9.90;99.90
37412;DHT22;23278;52.110;6.050;2023-04-07T01:05:14;9.80;99.90
37412;DHT22;23278;52.110;6.050;2023-04-07T01:07:50;9.80;99.90
37412;DHT22;23278;52.110;6.050;2023-04-07T01:10:26;9.80;99.90
37412;DHT22;23278;52.110;6.050;2023-04-07T01:13:28;9.80;99.90
37412;DHT22;23278;52.110;6.050;2023-04-07T01:16:48;9.80;99.90
37412;DHT22;23278;52.110;6.050;2023-04-07T01:21:42;9.80;99.90
37412;DHT22;23278;52.110;6.050;2023-04-07T01:27:20;9.80;99.90
37412;DHT22;23278;52.110;6.050;2023-04-07T01:29:47;9.70;99.90
37412;DHT22;23278;52.110;6.050;2023-04-07T01:32:16;9.70;99.90
37412;DHT22;23278;52.110;6.050;2023-04-07T01:34:44;9.70;99.90
37412;DHT22;23278;52.110;6.050;2023-04-07T01:37:13;9.60;99.90
37412;DHT22;23278;52.110;6.050;2023-04-07T01:39:40;9.60;99.90
37412;DHT22;23278;52.110;6.050;2023-04-07T01:42:07;9.60;99.90
37412;DHT22;23278;52.110;6.050;2023-04-07T01:44:34;9.60;99.90
37412;DHT22;23278;52.110;6.050;2023-04-07T01:47:00;9.60;99.90
37412;DHT22;23278;52.110;6.050;2023-04-07T01:49:28;9.60;99.90
37412;DHT22;23278;52.110;6.050;2023-04-07T01:51:55;9.60;99.90
37412;DHT22;23278;52.110;6.050;2023-04-07T01:54:22;9.60;99.90
37412;DHT22;23278;52.110;6.050;2023-04-07T01:56:48;9.60;99.90
37412;DHT22;23278;52.110;6.050;2023-04-07T01:59:15;9.60;99.90
37412;DHT22;23278;52.110;6.050;2023-04-07T02:01:41;9.70;99.90
37412;DHT22;23278;52.110;6.050;2023-04-07T02:04:17;9.70;99.90
37412;DHT22;23278;52.110;6.050;2023-04-07T02:06:53;9.70;99.90
37412;DHT22;23278;52.110;6.050;2023-04-07T02:09:31;9.70;99.90
37412;DHT22;23278;52.110;6.050;2023-04-07T02:11:59;9.70;99.90
37412;DHT22;23278;52.110;6.050;2023-04-07T02:14:31;9.70;99.90
37412;DHT22;23278;52.110;6.050;2023-04-07T02:17:08;9.70;99.90
37412;DHT22;23278;52.110;6.050;2023-04-07T02:19:35;9.70;99.90
37412;DHT22;23278;52.110;6.050;2023-04-07T02:22:05;9.70;99.90
37412;DHT22;23278;52.110;6.050;2023-04-07T02:24:31;9.70;99.90
37412;DHT22;23278;52.110;6.050;2023-04-07T02:26:57;9.70;99.90
37412;DHT22;23278;52.110;6.050;2023-04-07T02:29:25;9.70;99.90
37412;DHT22;23278;52.110;6.050;2023-04-07T02:31:51;9.60;99.90
37412;DHT22;23278;52.110;6.050;2023-04-07T02:34:17;9.60;99.90
37412;DHT22;23278;52.110;6.050;2023-04-07T02:36:43;9.60;99.90
37412;DHT22;23278;52.110;6.050;2023-04-07T02:39:09;9.60;99.90
37412;DHT22;23278;52.110;6.050;2023-04-07T02:41:35;9.60;99.90
37412;DHT22;23278;52.110;6.050;2023-04-07T02:44:01;9.60;99.90
37412;DHT22;23278;52.110;6.050;2023-04-07T02:46:27;9.60;99.90
37412;DHT22;23278;52.110;6.050;2023-04-07T02:48:53;9.60;99.90
37412;DHT22;23278;52.110;6.050;2023-04-07T02:51:19;9.60;99.90
37412;DHT22;23278;52.110;6.050;2023-04-07T02:53:45;9.70;99.90
37412;DHT22;23278;52.110;6.050;2023-04-07T02:56:11;9.60;99.90
37412;DHT22;23278;52.110;6.050;2023-04-07T02:58:37;9.70;99.90
37412;DHT22;23278;52.110;6.050;2023-04-07T03:01:03;9.60;99.90
37412;DHT22;23278;52.110;6.050;2023-04-07T03:03:31;9.70;99.90
37412;DHT22;23278;52.110;6.050;2023-04-07T03:06:13;9.60;99.90
37412;DHT22;23278;52.110;6.050;2023-04-07T03:08:50;9.60;99.90
37412;DHT22;23278;52.110;6.050;2023-04-07T03:11:16;9.70;99.90
37412;DHT22;23278;52.110;6.050;2023-04-07T03:13:43;9.70;99.90
37412;DHT22;23278;52.110;6.050;2023-04-07T03:16:09;9.60;99.90
37412;DHT22;23278;52.110;6.050;2023-04-07T03:18:44;9.60;99.90
37412;DHT22;23278;52.110;6.050;2023-04-07T03:21:11;9.70;99.90
37412;DHT22;23278;52.110;6.050;2023-04-07T03:23:37;9.60;99.90
37412;DHT22;23278;52.110;6.050;2023-04-07T03:26:03;9.70;99.90
37412;DHT22;23278;52.110;6.050;2023-04-07T03:28:33;9.60;99.90
37412;DHT22;23278;52.110;6.050;2023-04-07T03:30:59;9.60;99.90
37412;DHT22;23278;52.110;6.050;2023-04-07T03:33:25;9.60;99.90
37412;DHT22;23278;52.110;6.050;2023-04-07T03:35:53;9.70;99.90
37412;DHT22;23278;52.110;6.050;2023-04-07T03:38:20;9.60;99.90
37412;DHT22;23278;52.110;6.050;2023-04-07T03:40:47;9.60;99.90
37412;DHT22;23278;52.110;6.050;2023-04-07T03:43:13;9.60;99.90
37412;DHT22;23278;52.110;6.050;2023-04-07T03:45:41;9.60;99.90
37412;DHT22;23278;52.110;6.050;2023-04-07T03:48:07;9.60;99.90
37412;DHT22;23278;52.110;6.050;2023-04-07T03:50:44;9.60;99.90
37412;DHT22;23278;52.110;6.050;2023-04-07T03:53:14;9.70;99.90
37412;DHT22;23278;52.110;6.050;2023-04-07T03:55:42;9.70;99.90
37412;DHT22;23278;52.110;6.050;2023-04-07T03:58:17;9.70;99.90
37412;DHT22;23278;52.110;6.050;2023-04-07T04:00:46;9.70;99.90
37412;DHT22;23278;52.110;6.050;2023-04-07T04:03:12;9.70;99.90
37412;DHT22;23278;52.110;6.050;2023-04-07T04:05:50;9.80;99.90
37412;DHT22;23278;52.110;6.050;2023-04-07T04:08:20;9.80;99.90
37412;DHT22;23278;52.110;6.050;2023-04-07T04:10:46;9.80;99.90
37412;DHT22;23278;52.110;6.050;2023-04-07T04:13:12;9.80;99.90
37412;DHT22;23278;52.110;6.050;2023-04-07T04:15:40;9.80;99.90
37412;DHT22;23278;52.110;6.050;2023-04-07T04:18:12;9.80;99.90
37412;DHT22;23278;52.110;6.050;2023-04-07T04:20:38;9.80;99.90
37412;DHT22;23278;52.110;6.050;2023-04-07T04:23:05;9.80;99.90
37412;DHT22;23278;52.110;6.050;2023-04-07T04:25:32;9.80;99.90
37412;DHT22;23278;52.110;6.050;2023-04-07T04:27:59;9.80;99.90
37412;DHT22;23278;52.110;6.050;2023-04-07T04:30:26;9.70;99.90
37412;DHT22;23278;52.110;6.050;2023-04-07T04:32:59;9.80;99.90
37412;DHT22;23278;52.110;6.050;2023-04-07T04:35:35;9.70;99.90
37412;DHT22;23278;52.110;6.050;2023-04-07T04:38:08;9.70;99.90
37412;DHT22;23278;52.110;6.050;2023-04-07T04:40:35;9.80;99.90
37412;DHT22;23278;52.110;6.050;2023-04-07T04:43:02;9.80;99.90
37412;DHT22;23278;52.110;6.050;2023-04-07T04:45:34;9.80;99.90
37412;DHT22;23278;52.110;6.050;2023-04-07T04:48:01;9.80;99.90
37412;DHT22;23278;52.110;6.050;2023-04-07T04:50:27;9.80;99.90
37412;DHT22;23278;52.110;6.050;2023-04-07T04:52:53;9.80;99.90
37412;DHT22;23278;52.110;6.050;2023-04-07T04:55:21;9.80;99.90
37412;DHT22;23278;52.110;6.050;2023-04-07T04:57:48;9.80;99.90
37412;DHT22;23278;52.110;6.050;2023-04-07T05:00:19;9.90;99.90
37412;DHT22;23278;52.110;6.050;2023-04-07T05:02:48;9.80;99.90
37412;DHT22;23278;52.110;6.050;2023-04-07T05:05:14;9.90;99.90
37412;DHT22;23278;52.110;6.050;2023-04-07T05:07:41;9.90;99.90
37412;DHT22;23278;52.110;6.050;2023-04-07T05:10:10;9.90;99.90
37412;DHT22;23278;52.110;6.050;2023-04-07T05:12:46;9.90;99.90
37412;DHT22;23278;52.110;6.050;2023-04-07T05:15:12;9.90;99.90
37412;DHT22;23278;52.110;6.050;2023-04-07T05:17:40;9.90;99.90
37412;DHT22;23278;52.110;6.050;2023-04-07T05:20:09;9.90;99.90
37412;DHT22;23278;52.110;6.050;2023-04-07T05:22:37;10.00;99.90
37412;DHT22;23278;52.110;6.050;2023-04-07T05:25:06;10.00;99.90
37412;DHT22;23278;52.110;6.050;2023-04-07T05:27:32;10.00;99.90
37412;DHT22;23278;52.110;6.050;2023-04-07T05:30:02;10.00;99.90
37412;DHT22;23278;52.110;6.050;2023-04-07T05:32:32;10.00;99.90
37412;DHT22;23278;52.110;6.050;2023-04-07T05:35:05;10.00;99.90
37412;DHT22;23278;52.110;6.050;2023-04-07T05:37:34;10.10;99.90
37412;DHT22;23278;52.110;6.050;2023-04-07T05:40:03;10.00;99.90
37412;DHT22;23278;52.110;6.050;2023-04-07T05:42:29;10.10;99.90
37412;DHT22;23278;52.110;6.050;2023-04-07T05:44:56;10.10;99.90
37412;DHT22;23278;52.110;6.050;2023-04-07T05:47:24;10.10;99.90
37412;DHT22;23278;52.110;6.050;2023-04-07T05:49:50;10.10;99.90
37412;DHT22;23278;52.110;6.050;2023-04-07T05:52:16;10.10;99.90
37412;DHT22;23278;52.110;6.050;2023-04-07T05:54:48;10.10;99.90
37412;DHT22;23278;52.110;6.050;2023-04-07T05:57:14;10.10;99.90
37412;DHT22;23278;52.110;6.050;2023-04-07T05:59:43;10.10;99.90
37412;DHT22;23278;52.110;6.050;2023-04-07T06:02:10;10.20;99.90
37412;DHT22;23278;52.110;6.050;2023-04-07T06:04:36;10.20;99.90
37412;DHT22;23278;52.110;6.050;2023-04-07T06:07:05;10.20;99.90
37412;DHT22;23278;52.110;6.050;2023-04-07T06:09:31;10.20;99.90
37412;DHT22;23278;52.110;6.050;2023-04-07T06:11:57;10.20;99.90
37412;DHT22;23278;52.110;6.050;2023-04-07T06:14:24;10.20;99.90
37412;DHT22;23278;52.110;6.050;2023-04-07T06:16:50;10.20;99.90
37412;DHT22;23278;52.110;6.050;2023-04-07T06:19:16;10.30;99.90
37412;DHT22;23278;52.110;6.050;2023-04-07T06:21:42;10.30;99.90
37412;DHT22;23278;52.110;6.050;2023-04-07T06:24:08;10.40;99.90
37412;DHT22;23278;52.110;6.050;2023-04-07T06:26:34;10.40;99.90
37412;DHT22;23278;52.110;6.050;2023-04-07T06:29:00;10.40;99.90
37412;DHT22;23278;52.110;6.050;2023-04-07T06:31:27;10.50;99.90
37412;DHT22;23278;52.110;6.050;2023-04-07T06:33:53;10.50;99.90
37412;DHT22;23278;52.110;6.050;2023-04-07T06:36:19;10.60;99.90
37412;DHT22;23278;52.110;6.050;2023-04-07T06:38:46;10.70;99.90
37412;DHT22;23278;52.110;6.050;2023-04-07T06:41:12;10.70;99.90
37412;DHT22;23278;52.110;6.050;2023-04-07T06:43:48;10.70;99.90
37412;DHT22;23278;52.110;6.050;2023-04-07T06:46:16;10.70;99.90
37412;DHT22;23278;52.110;6.050;2023-04-07T06:48:42;10.80;99.90
37412;DHT22;23278;52.110;6.050;2023-04-07T06:51:08;10.80;99.90
37412;DHT22;23278;52.110;6.050;2023-04-07T06:53:34;10.80;99.90
37412;DHT22;23278;52.110;6.050;2023-04-07T06:56:04;10.80;99.90
37412;DHT22;23278;52.110;6.050;2023-04-07T06:58:31;10.80;99.90
37412;DHT22;23278;52.110;6.050;2023-04-07T07:00:57;10.90;99.90
37412;DHT22;23278;52.110;6.050;2023-04-07T07:03:22;10.90;99.90
37412;DHT22;23278;52.110;6.050;2023-04-07T07:05:48;11.00;99.90
37412;DHT22;23278;52.110;6.050;2023-04-07T07:08:14;11.10;99.90
37412;DHT22;23278;52.110;6.050;2023-04-07T07:10:40;11.20;99.90
37412;DHT22;23278;52.110;6.050;2023-04-07T07:13:06;11.30;99.90
37412;DHT22;23278;52.110;6.050;2023-04-07T07:15:32;11.40;99.90
37412;DHT22;23278;52.110;6.050;2023-04-07T07:17:58;11.50;99.90
37412;DHT22;23278;52.110;6.050;2023-04-07T07:20:24;11.70;99.90
37412;DHT22;23278;52.110;6.050;2023-04-07T07:22:50;11.80;99.90
37412;DHT22;23278;52.110;6.050;2023-04-07T07:25:16;11.90;99.90
37412;DHT22;23278;52.110;6.050;2023-04-07T07:27:42;11.90;99.90
37412;DHT22;23278;52.110;6.050;2023-04-07T07:30:08;11.90;99.90
37412;DHT22;23278;52.110;6.050;2023-04-07T07:32:34;11.90;99.90
37412;DHT22;23278;52.110;6.050;2023-04-07T07:35:00;11.90;99.90
37412;DHT22;23278;52.110;6.050;2023-04-07T07:37:26;11.90;99.90
37412;DHT22;23278;52.110;6.050;2023-04-07T07:39:52;12.00;99.90
37412;DHT22;23278;52.110;6.050;2023-04-07T07:42:18;12.00;99.90
37412;DHT22;23278;52.110;6.050;2023-04-07T07:44:44;12.00;99.90
37412;DHT22;23278;52.110;6.050;2023-04-07T07:47:10;12.00;99.90
37412;DHT22;23278;52.110;6.050;2023-04-07T07:49:37;12.00;99.90
37412;DHT22;23278;52.110;6.050;2023-04-07T07:52:03;12.00;99.90
37412;DHT22;23278;52.110;6.050;2023-04-07T07:54:29;12.10;99.90
37412;DHT22;23278;52.110;6.050;2023-04-07T07:56:54;12.10;99.90
37412;DHT22;23278;52.110;6.050;2023-04-07T07:59:20;12.00;99.90
37412;DHT22;23278;52.110;6.050;2023-04-07T08:01:46;12.00;99.90
37412;DHT22;23278;52.110;6.050;2023-04-07T08:04:12;11.90;99.90
37412;DHT22;23278;52.110;6.050;2023-04-07T08:06:38;11.90;99.90
37412;DHT22;23278;52.110;6.050;2023-04-07T08:09:04;11.80;99.90
37412;DHT22;23278;52.110;6.050;2023-04-07T08:11:30;11.80;99.90
37412;DHT22;23278;52.110;6.050;2023-04-07T08:13:56;11.70;99.90
37412;DHT22;23278;52.110;6.050;2023-04-07T08:16:22;11.70;99.90
37412;DHT22;23278;52.110;6.050;2023-04-07T08:18:48;11.70;99.90
37412;DHT22;23278;52.110;6.050;2023-04-07T08:21:14;11.70;99.90
37412;DHT22;23278;52.110;6.050;2023-04-07T08:23:40;11.60;99.90
37412;DHT22;23278;52.110;6.050;2023-04-07T08:26:06;11.60;99.90
37412;DHT22;23278;52.110;6.050;2023-04-07T08:28:32;11.60;99.90
37412;DHT22;23278;52.110;6.050;2023-04-07T08:30:58;11.70;99.90
37412;DHT22;23278;52.110;6.050;2023-04-07T08:33:25;11.70;99.90
37412;DHT22;23278;52.110;6.050;2023-04-07T08:35:51;11.90;99.90
37412;DHT22;23278;52.110;6.050;2023-04-07T08:38:16;12.00;99.90
37412;DHT22;23278;52.110;6.050;2023-04-07T08:40:42;12.10;99.90
37412;DHT22;23278;52.110;6.050;2023-04-07T08:43:09;12.10;99.90
37412;DHT22;23278;52.110;6.050;2023-04-07T08:45:38;12.10;99.90
37412;DHT22;23278;52.110;6.050;2023-04-07T08:48:17;12.10;99.90
37412;DHT22;23278;52.110;6.050;2023-04-07T08:50:48;12.20;99.90
37412;DHT22;23278;52.110;6.050;2023-04-07T08:53:20;12.20;99.90
37412;DHT22;23278;52.110;6.050;2023-04-07T08:55:48;12.30;99.90
37412;DHT22;23278;52.110;6.050;2023-04-07T08:58:14;12.30;99.90
37412;DHT22;23278;52.110;6.050;2023-04-07T09:00:43;12.30;99.90
37412;DHT22;23278;52.110;6.050;2023-04-07T09:03:10;12.30;99.90
37412;DHT22;23278;52.110;6.050;2023-04-07T09:05:38;12.30;99.90
37412;DHT22;23278;52.110;6.050;2023-04-07T09:08:03;12.30;99.90
37412;DHT22;23278;52.110;6.050;2023-04-07T09:10:29;12.40;99.90
37412;DHT22;23278;52.110;6.050;2023-04-07T09:12:57;12.50;99.90
37412;DHT22;23278;52.110;6.050;2023-04-07T09:15:25;12.50;99.90
37412;DHT22;23278;52.110;6.050;2023-04-07T09:17:56;12.50;99.90
37412;DHT22;23278;52.110;6.050;2023-04-07T09:20:22;12.60;99.90
37412;DHT22;23278;52.110;6.050;2023-04-07T09:22:48;12.60;99.90
37412;DHT22;23278;52.110;6.050;2023-04-07T09:25:19;12.60;99.90
37412;DHT22;23278;52.110;6.050;2023-04-07T09:30:26;12.70;99.90
37412;DHT22;23278;52.110;6.050;2023-04-07T09:32:52;12.70;99.90
37412;DHT22;23278;52.110;6.050;2023-04-07T09:35:18;12.70;99.90
37412;DHT22;23278;52.110;6.050;2023-04-07T09:37:59;12.70;99.90
37412;DHT22;23278;52.110;6.050;2023-04-07T09:40:25;12.70;99.90
37412;DHT22;23278;52.110;6.050;2023-04-07T09:42:52;12.60;99.90
37412;DHT22;23278;52.110;6.050;2023-04-07T09:45:28;12.70;99.90
37412;DHT22;23278;52.110;6.050;2023-04-07T09:47:54;12.70;99.90
37412;DHT22;23278;52.110;6.050;2023-04-07T09:50:31;12.70;99.90
37412;DHT22;23278;52.110;6.050;2023-04-07T09:52:58;12.80;99.90
37412;DHT22;23278;52.110;6.050;2023-04-07T09:55:24;12.90;99.90
37412;DHT22;23278;52.110;6.050;2023-04-07T09:57:51;13.00;99.90
37412;DHT22;23278;52.110;6.050;2023-04-07T10:00:17;13.10;99.90
37412;DHT22;23278;52.110;6.050;2023-04-07T10:02:43;13.40;99.90
37412;DHT22;23278;52.110;6.050;2023-04-07T10:05:10;13.60;99.90
37412;DHT22;23278;52.110;6.050;2023-04-07T10:07:36;13.90;99.90
37412;DHT22;23278;52.110;6.050;2023-04-07T10:10:03;14.10;99.90
37412;DHT22;23278;52.110;6.050;2023-04-07T10:12:32;14.20;99.90
37412;DHT22;23278;52.110;6.050;2023-04-07T10:14:59;14.30;99.90
37412;DHT22;23278;52.110;6.050;2023-04-07T10:17:27;14.30;99.90
37412;DHT22;23278;52.110;6.050;2023-04-07T10:19:58;14.20;99.90
37412;DHT22;23278;52.110;6.050;2023-04-07T10:22:25;14.30;99.90
37412;DHT22;23278;52.110;6.050;2023-04-07T10:24:56;14.30;99.90
37412;DHT22;23278;52.110;6.050;2023-04-07T10:27:30;14.30;99.90
37412;DHT22;23278;52.110;6.050;2023-04-07T10:29:56;14.20;99.90
37412;DHT22;23278;52.110;6.050;2023-04-07T10:32:23;14.00;99.90
37412;DHT22;23278;52.110;6.050;2023-04-07T10:37:16;13.60;99.90
37412;DHT22;23278;52.110;6.050;2023-04-07T10:39:46;13.40;99.90
37412;DHT22;23278;52.110;6.050;2023-04-07T10:45:03;13.20;99.90
37412;DHT22;23278;52.110;6.050;2023-04-07T10:47:29;13.10;99.90
37412;DHT22;23278;52.110;6.050;2023-04-07T10:50:16;13.00;99.90
37412;DHT22;23278;52.110;6.050;2023-04-07T10:55:39;12.90;99.90
37412;DHT22;23278;52.110;6.050;2023-04-07T11:03:39;12.90;99.90
37412;DHT22;23278;52.110;6.050;2023-04-07T11:06:12;12.90;99.90
37412;DHT22;23278;52.110;6.050;2023-04-07T11:08:45;13.00;99.90
37412;DHT22;23278;52.110;6.050;2023-04-07T11:11:13;13.00;99.90
37412;DHT22;23278;52.110;6.050;2023-04-07T11:13:40;13.10;99.90
37412;DHT22;23278;52.110;6.050;2023-04-07T11:16:07;13.30;99.90
37412;DHT22;23278;52.110;6.050;2023-04-07T11:18:35;13.50;99.90
37412;DHT22;23278;52.110;6.050;2023-04-07T11:21:02;13.70;99.90
37412;DHT22;23278;52.110;6.050;2023-04-07T11:23:38;13.90;99.90
37412;DHT22;23278;52.110;6.050;2023-04-07T11:26:04;14.10;99.90
37412;DHT22;23278;52.110;6.050;2023-04-07T11:28:30;14.20;99.90
37412;DHT22;23278;52.110;6.050;2023-04-07T11:30:56;14.40;99.90
37412;DHT22;23278;52.110;6.050;2023-04-07T11:33:28;14.40;99.90
37412;DHT22;23278;52.110;6.050;2023-04-07T11:35:57;14.20;99.90
37412;DHT22;23278;52.110;6.050;2023-04-07T11:38:25;14.20;99.90
37412;DHT22;23278;52.110;6.050;2023-04-07T11:40:53;14.10;99.90
37412;DHT22;23278;52.110;6.050;2023-04-07T11:43:24;14.10;99.90
37412;DHT22;23278;52.110;6.050;2023-04-07T11:46:13;14.10;99.90
37412;DHT22;23278;52.110;6.050;2023-04-07T11:48:40;14.00;99.90
37412;DHT22;23278;52.110;6.050;2023-04-07T11:51:17;14.00;99.90
37412;DHT22;23278;52.110;6.050;2023-04-07T11:53:44;14.00;99.90
37412;DHT22;23278;52.110;6.050;2023-04-07T11:56:14;13.90;99.90
37412;DHT22;23278;52.110;6.050;2023-04-07T11:58:50;13.90;99.90
37412;DHT22;23278;52.110;6.050;2023-04-07T12:01:16;13.80;99.90
37412;DHT22;23278;52.110;6.050;2023-04-07T12:04:01;13.70;99.90
37412;DHT22;23278;52.110;6.050;2023-04-07T12:06:32;13.50;99.90
37412;DHT22;23278;52.110;6.050;2023-04-07T12:09:03;13.50;99.90
37412;DHT22;23278;52.110;6.050;2023-04-07T12:11:30;13.40;99.90
37412;DHT22;23278;52.110;6.050;2023-04-07T12:13:56;13.40;99.90
37412;DHT22;23278;52.110;6.050;2023-04-07T12:16:22;13.40;99.90
37412;DHT22;23278;52.110;6.050;2023-04-07T12:18:49;13.40;99.90
37412;DHT22;23278;52.110;6.050;2023-04-07T12:21:17;13.30;99.90
37412;DHT22;23278;52.110;6.050;2023-04-07T12:23:43;13.30;99.90
37412;DHT22;23278;52.110;6.050;2023-04-07T12:26:09;13.30;99.90
37412;DHT22;23278;52.110;6.050;2023-04-07T12:28:37;13.30;99.90
37412;DHT22;23278;52.110;6.050;2023-04-07T12:31:03;13.20;99.90
37412;DHT22;23278;52.110;6.050;2023-04-07T12:33:30;13.30;99.90
37412;DHT22;23278;52.110;6.050;2023-04-07T12:35:56;13.40;99.90
37412;DHT22;23278;52.110;6.050;2023-04-07T12:38:23;13.60;99.90
37412;DHT22;23278;52.110;6.050;2023-04-07T12:40:49;13.70;99.90
37412;DHT22;23278;52.110;6.050;2023-04-07T12:43:15;13.80;99.90
37412;DHT22;23278;52.110;6.050;2023-04-07T12:45:42;14.00;99.90
37412;DHT22;23278;52.110;6.050;2023-04-07T12:48:08;14.10;99.90
37412;DHT22;23278;52.110;6.050;2023-04-07T12:50:35;14.20;99.90
37412;DHT22;23278;52.110;6.050;2023-04-07T12:53:01;14.20;99.90
37412;DHT22;23278;52.110;6.050;2023-04-07T12:55:31;14.10;99.90
37412;DHT22;23278;52.110;6.050;2023-04-07T12:57:59;14.10;99.90
37412;DHT22;23278;52.110;6.050;2023-04-07T13:00:24;14.00;99.90
37412;DHT22;23278;52.110;6.050;2023-04-07T13:02:50;14.00;99.90
37412;DHT22;23278;52.110;6.050;2023-04-07T13:05:17;13.90;99.90
37412;DHT22;23278;52.110;6.050;2023-04-07T13:07:43;13.80;99.90
37412;DHT22;23278;52.110;6.050;2023-04-07T13:10:09;13.70;99.90
37412;DHT22;23278;52.110;6.050;2023-04-07T13:12:35;13.60;99.90
37412;DHT22;23278;52.110;6.050;2023-04-07T13:15:02;13.60;99.90
37412;DHT22;23278;52.110;6.050;2023-04-07T13:17:28;13.70;99.90
37412;DHT22;23278;52.110;6.050;2023-04-07T13:19:54;13.80;99.90
37412;DHT22;23278;52.110;6.050;2023-04-07T13:22:20;14.00;99.90
37412;DHT22;23278;52.110;6.050;2023-04-07T13:24:47;14.10;99.90
37412;DHT22;23278;52.110;6.050;2023-04-07T13:27:13;14.10;99.90
37412;DHT22;23278;52.110;6.050;2023-04-07T13:29:39;14.10;99.90
37412;DHT22;23278;52.110;6.050;2023-04-07T13:32:06;14.20;99.90
37412;DHT22;23278;52.110;6.050;2023-04-07T13:34:33;14.10;99.90
37412;DHT22;23278;52.110;6.050;2023-04-07T13:37:02;14.10;99.90
37412;DHT22;23278;52.110;6.050;2023-04-07T13:39:29;14.00;99.90
37412;DHT22;23278;52.110;6.050;2023-04-07T13:41:55;13.80;99.90
37412;DHT22;23278;52.110;6.050;2023-04-07T13:44:23;13.80;99.90
37412;DHT22;23278;52.110;6.050;2023-04-07T13:46:49;13.90;99.90
37412;DHT22;23278;52.110;6.050;2023-04-07T13:49:15;13.90;99.90
37412;DHT22;23278;52.110;6.050;2023-04-07T13:51:41;13.80;99.90
37412;DHT22;23278;52.110;6.050;2023-04-07T13:54:07;13.80;99.90
37412;DHT22;23278;52.110;6.050;2023-04-07T13:56:33;13.70;99.90
37412;DHT22;23278;52.110;6.050;2023-04-07T13:59:04;13.60;99.90
37412;DHT22;23278;52.110;6.050;2023-04-07T14:01:31;13.50;99.90
37412;DHT22;23278;52.110;6.050;2023-04-07T14:03:58;13.50;99.90
37412;DHT22;23278;52.110;6.050;2023-04-07T14:06:24;13.50;99.90
37412;DHT22;23278;52.110;6.050;2023-04-07T14:08:51;13.40;99.90
37412;DHT22;23278;52.110;6.050;2023-04-07T14:11:18;13.50;99.90
37412;DHT22;23278;52.110;6.050;2023-04-07T14:13:45;13.50;99.90
37412;DHT22;23278;52.110;6.050;2023-04-07T14:16:11;13.60;99.90
37412;DHT22;23278;52.110;6.050;2023-04-07T14:18:37;13.60;99.90
37412;DHT22;23278;52.110;6.050;2023-04-07T14:21:04;13.50;99.90
37412;DHT22;23278;52.110;6.050;2023-04-07T14:23:30;13.50;99.90
37412;DHT22;23278;52.110;6.050;2023-04-07T14:26:00;13.50;99.90
37412;DHT22;23278;52.110;6.050;2023-04-07T14:28:26;13.40;99.90
37412;DHT22;23278;52.110;6.050;2023-04-07T14:30:53;13.40;99.90
37412;DHT22;23278;52.110;6.050;2023-04-07T14:33:20;13.40;99.90
37412;DHT22;23278;52.110;6.050;2023-04-07T14:35:47;13.40;99.90
37412;DHT22;23278;52.110;6.050;2023-04-07T14:38:13;13.40;99.90
37412;DHT22;23278;52.110;6.050;2023-04-07T14:40:39;13.40;99.90
37412;DHT22;23278;52.110;6.050;2023-04-07T14:43:05;13.40;99.90
37412;DHT22;23278;52.110;6.050;2023-04-07T14:45:33;13.50;99.90
37412;DHT22;23278;52.110;6.050;2023-04-07T14:47:59;13.50;99.90
37412;DHT22;23278;52.110;6.050;2023-04-07T14:50:25;13.50;99.90
37412;DHT22;23278;52.110;6.050;2023-04-07T14:52:52;13.50;99.90
37412;DHT22;23278;52.110;6.050;2023-04-07T14:55:18;13.60;99.90
37412;DHT22;23278;52.110;6.050;2023-04-07T14:57:45;13.60;99.90
37412;DHT22;23278;52.110;6.050;2023-04-07T15:00:11;13.50;99.90
37412;DHT22;23278;52.110;6.050;2023-04-07T15:02:37;13.60;99.90
37412;DHT22;23278;52.110;6.050;2023-04-07T15:05:04;13.70;99.90
37412;DHT22;23278;52.110;6.050;2023-04-07T15:07:29;13.70;99.90
37412;DHT22;23278;52.110;6.050;2023-04-07T15:09:55;13.70;99.90
37412;DHT22;23278;52.110;6.050;2023-04-07T15:12:21;13.70;99.90
37412;DHT22;23278;52.110;6.050;2023-04-07T15:14:49;13.70;99.90
37412;DHT22;23278;52.110;6.050;2023-04-07T15:17:16;13.70;99.90
37412;DHT22;23278;52.110;6.050;2023-04-07T15:19:42;13.60;99.90
37412;DHT22;23278;52.110;6.050;2023-04-07T15:22:08;13.50;99.90
37412;DHT22;23278;52.110;6.050;2023-04-07T15:24:34;13.40;99.90
37412;DHT22;23278;52.110;6.050;2023-04-07T15:27:00;13.30;99.90
37412;DHT22;23278;52.110;6.050;2023-04-07T15:29:26;13.20;99.90
37412;DHT22;23278;52.110;6.050;2023-04-07T15:31:52;13.20;99.90
37412;DHT22;23278;52.110;6.050;2023-04-07T15:34:18;13.20;99.90
37412;DHT22;23278;52.110;6.050;2023-04-07T15:36:44;13.20;99.90
37412;DHT22;23278;52.110;6.050;2023-04-07T15:39:10;13.20;99.90
37412;DHT22;23278;52.110;6.050;2023-04-07T15:41:37;13.20;99.90
37412;DHT22;23278;52.110;6.050;2023-04-07T15:44:03;13.20;99.90
37412;DHT22;23278;52.110;6.050;2023-04-07T15:46:29;13.10;99.90
37412;DHT22;23278;52.110;6.050;2023-04-07T15:48:56;13.10;99.90
37412;DHT22;23278;52.110;6.050;2023-04-07T15:51:22;13.00;99.90
37412;DHT22;23278;52.110;6.050;2023-04-07T15:53:48;12.90;99.90
37412;DHT22;23278;52.110;6.050;2023-04-07T15:56:14;12.80;99.90
37412;DHT22;23278;52.110;6.050;2023-04-07T15:58:40;12.70;99.90
37412;DHT22;23278;52.110;6.050;2023-04-07T16:01:07;12.70;99.90
37412;DHT22;23278;52.110;6.050;2023-04-07T16:03:33;12.80;99.90